createdAt,value
2023-11-30T00:00:48.721Z,4.51
2023-11-30T00:03:20.482Z,4.37
2023-11-30T00:05:52.207Z,4.59
2023-11-30T00:08:24.135Z,4.49
2023-11-30T00:10:55.706Z,4.43
2023-11-30T00:13:27.481Z,4.00
2023-11-30T00:15:59.053Z,4.30
2023-11-30T00:18:30.751Z,4.53
2023-11-30T00:21:02.515Z,4.08
2023-11-30T00:23:36.160Z,4.50
2023-11-30T00:26:07.811Z,4.44
2023-11-30T00:28:39.440Z,4.65
2023-11-30T00:31:11.150Z,4.59
2023-11-30T00:33:42.899Z,4.74
2023-11-30T00:36:14.553Z,4.61
2023-11-30T00:38:46.362Z,4.79
2023-11-30T00:41:18.240Z,4.43
2023-11-30T00:43:49.909Z,4.30
2023-11-30T00:46:21.495Z,4.25
2023-11-30T00:48:53.224Z,4.75
2023-11-30T00:51:24.953Z,4.30
2023-11-30T00:53:56.874Z,4.68
2023-11-30T00:56:28.472Z,4.72
2023-11-30T00:59:00.086Z,4.87
2023-11-30T01:01:31.916Z,4.59
2023-11-30T01:04:03.780Z,4.62
2023-11-30T01:06:35.893Z,4.87
2023-11-30T01:09:08.591Z,4.48
2023-11-30T01:11:44.879Z,4.80
2023-11-30T01:14:17.167Z,4.67
2023-11-30T01:16:48.868Z,4.69
2023-11-30T01:19:20.472Z,4.88
2023-11-30T01:21:52.194Z,4.54
2023-11-30T01:24:24.751Z,4.59
2023-11-30T01:26:56.361Z,4.96
2023-11-30T01:29:28.049Z,4.87
2023-11-30T01:32:00.016Z,4.97
2023-11-30T01:34:31.650Z,4.40
2023-11-30T01:37:03.272Z,4.30
2023-11-30T01:39:34.798Z,4.93
2023-11-30T01:42:06.613Z,4.62
2023-11-30T01:44:38.209Z,4.74
2023-11-30T01:47:10.064Z,5.25
2023-11-30T01:49:41.807Z,4.56
2023-11-30T01:52:13.400Z,5.04
2023-11-30T01:54:46.066Z,4.86
2023-11-30T01:57:17.996Z,4.59
2023-11-30T01:59:49.950Z,4.85
2023-11-30T02:02:21.966Z,4.61
2023-11-30T02:04:54.378Z,4.80
2023-11-30T02:07:25.974Z,5.18
2023-11-30T02:09:57.769Z,4.91
2023-11-30T02:12:29.455Z,4.90
2023-11-30T02:15:01.246Z,5.05
2023-11-30T02:17:33.017Z,5.37
2023-11-30T02:20:06.109Z,5.28
2023-11-30T02:22:37.835Z,5.12
2023-11-30T02:25:09.438Z,5.22
2023-11-30T02:27:41.134Z,5.65
2023-11-30T02:30:13.816Z,4.83
2023-11-30T02:32:45.511Z,5.48
2023-11-30T02:35:17.418Z,5.38
2023-11-30T02:37:48.988Z,5.05
2023-11-30T02:40:20.613Z,5.21
2023-11-30T02:42:52.325Z,5.30
2023-11-30T02:45:23.941Z,5.19
2023-11-30T02:47:55.581Z,5.14
2023-11-30T02:50:27.268Z,4.87
2023-11-30T02:52:58.949Z,5.22
2023-11-30T02:55:30.590Z,5.45
2023-11-30T02:58:02.233Z,5.24
2023-11-30T03:00:33.968Z,5.22
2023-11-30T03:03:05.713Z,4.98
2023-11-30T03:05:37.329Z,5.01
2023-11-30T03:08:09.144Z,4.90
2023-11-30T03:10:40.717Z,5.50
2023-11-30T03:13:12.459Z,5.67
2023-11-30T03:15:46.000Z,5.16
2023-11-30T03:18:17.652Z,5.40
2023-11-30T03:20:49.288Z,5.09
2023-11-30T03:23:20.833Z,4.76
2023-11-30T03:25:52.416Z,5.52
2023-11-30T03:28:23.950Z,5.53
2023-11-30T03:30:55.448Z,5.74
2023-11-30T03:33:27.001Z,5.49
2023-11-30T03:35:58.899Z,4.73
2023-11-30T03:38:30.727Z,5.31
2023-11-30T03:41:02.294Z,5.79
2023-11-30T03:43:33.851Z,5.79
2023-11-30T03:46:05.860Z,5.94
2023-11-30T03:48:37.476Z,5.82
2023-11-30T03:51:09.207Z,5.85
2023-11-30T03:53:40.845Z,5.80
2023-11-30T03:56:12.570Z,5.97
2023-11-30T03:58:44.127Z,5.65
2023-11-30T04:01:23.806Z,5.49
2023-11-30T04:03:55.448Z,5.98
2023-11-30T04:06:27.022Z,6.11
2023-11-30T04:09:00.445Z,6.19
2023-11-30T04:11:32.071Z,6.13
2023-11-30T04:14:08.628Z,6.26
2023-11-30T04:16:40.330Z,5.88
2023-11-30T04:19:11.904Z,6.18
2023-11-30T04:21:43.465Z,6.13
2023-11-30T04:24:17.074Z,5.81
2023-11-30T04:26:48.741Z,6.04
2023-11-30T04:29:20.456Z,6.01
2023-11-30T04:31:52.112Z,6.21
2023-11-30T04:34:23.758Z,5.99
2023-11-30T04:36:55.320Z,6.31
2023-11-30T04:39:26.906Z,6.56
2023-11-30T04:41:58.587Z,6.32
2023-11-30T04:44:30.386Z,6.24
2023-11-30T04:47:01.939Z,5.99
2023-11-30T04:49:33.687Z,5.94
2023-11-30T04:52:05.442Z,6.13
2023-11-30T04:54:39.195Z,6.03
2023-11-30T04:57:11.230Z,6.02
2023-11-30T04:59:42.809Z,5.50
2023-11-30T05:02:14.529Z,5.59
2023-11-30T05:04:46.248Z,5.39
2023-11-30T05:07:17.852Z,5.19
2023-11-30T05:09:49.441Z,4.95
2023-11-30T05:12:21.373Z,4.86
2023-11-30T05:14:52.964Z,4.81
2023-11-30T05:17:24.550Z,4.95
2023-11-30T05:19:56.688Z,5.02
2023-11-30T05:22:28.233Z,5.01
2023-11-30T05:24:59.716Z,5.29
2023-11-30T05:27:31.253Z,5.01
2023-11-30T05:30:04.531Z,5.24
2023-11-30T05:32:36.080Z,5.02
2023-11-30T05:35:08.476Z,4.86
2023-11-30T05:37:40.031Z,5.13
2023-11-30T05:40:12.794Z,5.28
2023-11-30T05:42:44.433Z,4.84
2023-11-30T05:45:16.049Z,5.07
2023-11-30T05:47:47.687Z,4.90
2023-11-30T05:50:20.282Z,4.67
2023-11-30T05:52:51.851Z,4.69
2023-11-30T05:55:23.402Z,4.60
2023-11-30T05:57:55.641Z,4.75
2023-11-30T06:00:27.839Z,4.85
2023-11-30T06:02:59.541Z,5.02
2023-11-30T06:05:31.220Z,4.73
2023-11-30T06:08:02.835Z,4.93
2023-11-30T06:10:34.415Z,4.52
2023-11-30T06:13:08.379Z,4.77
2023-11-30T06:15:40.045Z,5.02
2023-11-30T06:18:11.945Z,5.00
2023-11-30T06:20:43.557Z,4.87
2023-11-30T06:23:15.179Z,5.10
2023-11-30T06:25:46.701Z,4.97
2023-11-30T06:28:18.319Z,4.95
2023-11-30T06:30:49.913Z,4.68
2023-11-30T06:33:21.534Z,4.70
2023-11-30T06:35:53.101Z,4.96
2023-11-30T06:38:24.940Z,5.11
2023-11-30T06:40:56.490Z,4.97
2023-11-30T06:43:29.969Z,4.96
2023-11-30T06:46:01.525Z,5.04
2023-11-30T06:48:33.465Z,5.09
2023-11-30T06:51:08.007Z,5.28
2023-11-30T06:53:39.624Z,5.34
2023-11-30T06:56:14.524Z,5.23
2023-11-30T06:58:46.134Z,5.18
2023-11-30T07:01:17.763Z,4.90
2023-11-30T07:03:49.592Z,5.18
2023-11-30T07:06:22.405Z,5.25
2023-11-30T07:08:54.122Z,5.30
2023-11-30T07:11:25.649Z,5.29
2023-11-30T07:13:57.304Z,5.27
2023-11-30T07:16:29.278Z,5.37
2023-11-30T07:19:01.046Z,5.40
2023-11-30T07:21:32.648Z,5.13
2023-11-30T07:24:04.775Z,5.41
2023-11-30T07:26:36.827Z,5.49
2023-11-30T07:29:08.497Z,5.32
2023-11-30T07:31:40.146Z,5.30
2023-11-30T07:34:11.836Z,5.18
2023-11-30T07:36:43.632Z,5.21
2023-11-30T07:39:15.215Z,4.89
2023-11-30T07:41:46.873Z,4.91
2023-11-30T07:44:18.396Z,4.99
2023-11-30T07:46:49.979Z,5.16
2023-11-30T07:49:21.492Z,4.93
2023-11-30T07:51:53.136Z,4.98
2023-11-30T07:54:25.571Z,4.85
2023-11-30T07:56:57.397Z,5.13
2023-11-30T07:59:29.015Z,5.03
2023-11-30T08:02:01.483Z,5.20
2023-11-30T08:04:33.766Z,5.24
2023-11-30T08:07:05.343Z,5.17
2023-11-30T08:09:36.925Z,5.04
2023-11-30T08:12:08.575Z,4.96
2023-11-30T08:14:40.164Z,5.10
2023-11-30T08:17:11.899Z,5.35
2023-11-30T08:19:44.370Z,5.39
2023-11-30T08:22:16.174Z,5.48
2023-11-30T08:24:47.833Z,5.41
2023-11-30T08:27:19.639Z,5.39
2023-11-30T08:29:51.529Z,5.62
2023-11-30T08:32:23.263Z,5.45
2023-11-30T08:34:54.993Z,5.11
2023-11-30T08:37:26.591Z,5.13
2023-11-30T08:40:00.626Z,5.44
2023-11-30T08:42:32.319Z,5.43
2023-11-30T08:45:06.182Z,5.66
2023-11-30T08:47:37.950Z,5.80
2023-11-30T08:50:10.140Z,5.71
2023-11-30T08:52:41.762Z,5.70
2023-11-30T08:55:13.808Z,5.82
2023-11-30T08:57:45.596Z,5.83
2023-11-30T09:00:20.592Z,5.85
2023-11-30T09:02:52.580Z,5.89
2023-11-30T09:05:24.979Z,5.82
2023-11-30T09:07:56.734Z,5.89
2023-11-30T09:10:28.832Z,5.91
2023-11-30T09:13:03.909Z,5.81
2023-11-30T09:15:35.820Z,5.80
2023-11-30T09:18:09.152Z,5.77
2023-11-30T09:20:40.927Z,5.77
2023-11-30T09:23:12.793Z,5.58
2023-11-30T09:25:44.931Z,5.71
2023-11-30T09:28:19.810Z,5.74
2023-11-30T09:30:57.164Z,5.75
2023-11-30T09:33:39.457Z,5.51
2023-11-30T09:36:17.760Z,5.81
2023-11-30T09:39:11.747Z,5.99
2023-11-30T09:42:22.134Z,5.96
2023-11-30T09:45:09.034Z,5.87
2023-11-30T09:47:44.070Z,5.79
2023-11-30T09:50:24.085Z,5.81
2023-11-30T09:53:04.851Z,5.76
2023-11-30T09:55:40.017Z,5.93
2023-11-30T09:58:12.449Z,5.77
2023-11-30T10:01:23.725Z,5.68
2023-11-30T10:04:25.190Z,5.71
2023-11-30T10:07:13.703Z,5.17
2023-11-30T10:10:15.539Z,5.05
2023-11-30T10:13:09.789Z,5.38
2023-11-30T10:16:25.088Z,5.53
2023-11-30T10:19:14.818Z,5.78
2023-11-30T10:22:02.087Z,5.69
2023-11-30T10:24:49.810Z,5.73
2023-11-30T10:27:23.964Z,5.80
2023-11-30T10:30:03.999Z,5.87
2023-11-30T10:32:47.117Z,5.97
2023-11-30T10:35:21.503Z,6.12
2023-11-30T10:37:55.250Z,5.94
2023-11-30T10:40:37.620Z,6.01
2023-11-30T10:43:13.336Z,6.03
2023-11-30T10:45:47.135Z,6.16
2023-11-30T10:50:53.234Z,6.06
2023-11-30T10:53:44.076Z,6.12
2023-11-30T10:56:19.082Z,5.81
2023-11-30T10:58:54.337Z,6.04
2023-11-30T11:01:28.172Z,6.17
2023-11-30T11:04:00.353Z,6.06
2023-11-30T11:12:51.665Z,6.01
2023-11-30T11:15:35.884Z,5.93
2023-11-30T11:18:14.880Z,6.11
2023-11-30T11:20:59.395Z,5.86
2023-11-30T11:23:50.015Z,5.82
2023-11-30T11:37:06.415Z,5.75
2023-11-30T11:39:38.634Z,5.92
2023-11-30T11:42:10.331Z,5.93
2023-11-30T11:44:42.040Z,6.18
2023-11-30T11:47:13.719Z,6.27
2023-11-30T11:49:46.062Z,6.02
2023-11-30T11:52:22.804Z,6.27
2023-11-30T11:55:05.073Z,6.24
2023-11-30T11:57:39.808Z,6.24
2023-11-30T12:00:19.244Z,6.29
2023-11-30T12:02:52.640Z,6.34
2023-11-30T12:05:27.171Z,6.25
2023-11-30T12:08:02.674Z,6.30
2023-11-30T12:10:43.500Z,6.53
2023-11-30T12:13:16.208Z,6.53
2023-11-30T12:15:50.475Z,6.53
2023-11-30T12:18:22.682Z,6.39
2023-11-30T12:20:54.301Z,6.62
2023-11-30T12:23:25.894Z,6.59
2023-11-30T12:25:57.682Z,6.82
2023-11-30T12:28:39.144Z,6.86
2023-11-30T12:31:10.815Z,6.80
2023-11-30T12:33:42.542Z,6.71
2023-11-30T12:36:15.320Z,6.80
2023-11-30T12:38:47.014Z,6.93
2023-11-30T12:41:18.653Z,6.87
2023-11-30T12:43:50.288Z,7.00
2023-11-30T12:46:21.953Z,7.09
2023-11-30T12:48:54.051Z,7.05
2023-11-30T12:51:26.063Z,7.00
2023-11-30T12:53:57.805Z,7.01
2023-11-30T12:56:29.498Z,7.07
2023-11-30T12:59:01.420Z,7.08
2023-11-30T13:01:33.113Z,6.82
2023-11-30T13:04:05.362Z,6.70
2023-11-30T13:06:37.086Z,6.65
2023-11-30T13:09:15.358Z,6.70
2023-11-30T13:11:47.078Z,6.73
2023-11-30T13:14:19.285Z,6.68
2023-11-30T13:16:51.077Z,6.60
2023-11-30T13:19:24.841Z,6.64
2023-11-30T13:21:57.294Z,6.63
2023-11-30T13:24:29.044Z,6.70
2023-11-30T13:27:00.770Z,6.56
2023-11-30T13:29:32.353Z,6.65
2023-11-30T13:32:05.513Z,6.63
2023-11-30T13:34:38.881Z,6.62
2023-11-30T13:37:10.582Z,6.65
2023-11-30T13:39:42.217Z,6.58
2023-11-30T13:42:13.929Z,6.69
2023-11-30T13:44:45.687Z,6.69
2023-11-30T13:47:18.017Z,6.67
2023-11-30T13:49:49.593Z,6.76
2023-11-30T13:52:21.248Z,6.77
2023-11-30T13:54:52.939Z,6.79
2023-11-30T13:57:24.543Z,6.40
2023-11-30T13:59:57.113Z,6.56
2023-11-30T14:02:28.946Z,6.70
2023-11-30T14:05:00.639Z,6.55
2023-11-30T14:07:34.191Z,6.58
2023-11-30T14:10:11.090Z,6.51
2023-11-30T14:12:43.793Z,6.49
2023-11-30T14:15:15.720Z,6.47
2023-11-30T14:17:47.372Z,6.54
2023-11-30T14:20:21.151Z,6.61
2023-11-30T14:22:53.200Z,6.51
2023-11-30T14:25:26.874Z,6.46
2023-11-30T14:28:03.495Z,6.63
2023-11-30T14:30:39.493Z,6.58
2023-11-30T14:33:13.369Z,6.38
2023-11-30T14:35:45.894Z,6.28
2023-11-30T14:38:17.570Z,6.43
2023-11-30T14:40:49.198Z,6.50
2023-11-30T14:43:20.819Z,6.61
2023-11-30T14:45:52.408Z,6.53
2023-11-30T14:48:26.850Z,6.25
2023-11-30T14:50:58.543Z,6.17
2023-11-30T14:53:30.562Z,6.31
2023-11-30T14:56:03.173Z,6.41
2023-11-30T14:58:34.805Z,6.41
2023-11-30T15:01:11.560Z,6.46
2023-11-30T15:03:43.400Z,6.44
2023-11-30T15:06:15.122Z,6.50
2023-11-30T15:08:46.818Z,6.49
2023-11-30T15:11:18.515Z,6.49
2023-11-30T15:13:50.140Z,6.41
2023-11-30T15:16:23.040Z,6.43
2023-11-30T15:18:54.728Z,6.47
2023-11-30T15:21:26.661Z,6.54
2023-11-30T15:23:58.308Z,6.27
2023-11-30T15:26:29.976Z,6.47
2023-11-30T15:29:01.632Z,6.27
2023-11-30T15:31:33.384Z,6.44
2023-11-30T15:34:05.174Z,6.50
2023-11-30T15:36:37.090Z,6.47
2023-11-30T15:39:17.006Z,6.53
2023-11-30T15:41:48.731Z,6.47
2023-11-30T15:44:20.343Z,6.44
2023-11-30T15:46:51.987Z,6.41
2023-11-30T15:49:24.911Z,6.52
2023-11-30T15:51:56.646Z,6.43
2023-11-30T15:54:28.268Z,6.32
2023-11-30T15:57:00.211Z,6.24
2023-11-30T15:59:31.864Z,6.39
2023-11-30T16:02:03.809Z,6.48
2023-11-30T16:04:36.031Z,6.56
2023-11-30T16:07:07.783Z,6.60
2023-11-30T16:09:39.545Z,6.56
2023-11-30T16:12:11.462Z,6.46
2023-11-30T16:14:43.151Z,6.15
2023-11-30T16:17:14.761Z,6.32
2023-11-30T16:19:46.533Z,6.47
2023-11-30T16:22:18.435Z,6.39
2023-11-30T16:24:50.344Z,6.06
2023-11-30T16:27:22.156Z,6.34
2023-11-30T16:29:54.586Z,6.27
2023-11-30T16:32:26.266Z,5.95
2023-11-30T16:34:57.935Z,6.19
2023-11-30T16:37:29.526Z,5.95
2023-11-30T16:40:01.699Z,6.12
2023-11-30T16:42:33.564Z,6.35
2023-11-30T16:45:07.320Z,6.30
2023-11-30T16:47:39.449Z,6.44
2023-11-30T16:50:15.512Z,6.62
2023-11-30T16:52:48.994Z,6.61
2023-11-30T16:55:22.746Z,6.63
2023-11-30T16:57:54.435Z,6.57
2023-11-30T17:00:26.122Z,6.45
2023-11-30T17:02:58.127Z,6.34
2023-11-30T17:05:30.269Z,5.88
2023-11-30T17:08:02.243Z,6.31
2023-11-30T17:10:33.855Z,6.43
2023-11-30T17:13:05.719Z,6.58
2023-11-30T17:15:37.671Z,6.62
2023-11-30T17:18:09.366Z,6.66
2023-11-30T17:20:42.061Z,6.58
2023-11-30T17:23:13.985Z,6.48
2023-11-30T17:25:45.609Z,6.30
2023-11-30T17:28:17.223Z,6.38
2023-11-30T17:30:48.901Z,6.28
2023-11-30T17:33:20.726Z,6.47
2023-11-30T17:35:52.570Z,6.50
2023-11-30T17:38:24.246Z,6.61
2023-11-30T17:40:55.902Z,6.22
2023-11-30T17:43:27.570Z,6.52
2023-11-30T17:45:59.346Z,6.58
2023-11-30T17:48:31.049Z,6.80
2023-11-30T17:51:02.663Z,6.68
2023-11-30T17:53:35.802Z,6.66
2023-11-30T17:56:08.066Z,6.83
2023-11-30T17:58:39.789Z,6.58
2023-11-30T18:01:11.481Z,6.62
2023-11-30T18:03:43.234Z,6.27
2023-11-30T18:06:14.948Z,6.47
2023-11-30T18:08:47.266Z,6.62
2023-11-30T18:11:19.286Z,6.57
2023-11-30T18:13:51.026Z,6.62
2023-11-30T18:16:22.744Z,6.67
2023-11-30T18:18:55.510Z,6.57
2023-11-30T18:21:30.109Z,6.40
2023-11-30T18:24:01.940Z,6.52
2023-11-30T18:26:33.520Z,6.16
2023-11-30T18:29:05.110Z,6.40
2023-11-30T18:31:37.497Z,6.28
2023-11-30T18:34:09.360Z,6.35
2023-11-30T18:36:41.164Z,6.38
2023-11-30T18:39:14.550Z,6.30
2023-11-30T18:41:46.250Z,6.42
2023-11-30T18:44:18.005Z,6.43
2023-11-30T18:46:49.798Z,6.53
2023-11-30T18:49:21.528Z,6.44
2023-11-30T18:51:53.298Z,6.60
2023-11-30T18:54:25.162Z,6.69
2023-11-30T18:56:56.863Z,6.54
2023-11-30T18:59:28.982Z,6.64
2023-11-30T19:02:00.784Z,6.82
2023-11-30T19:04:33.676Z,6.71
2023-11-30T19:07:05.376Z,5.93
2023-11-30T19:09:37.216Z,5.91
2023-11-30T19:12:09.668Z,6.06
2023-11-30T19:14:41.313Z,6.13
2023-11-30T19:17:12.952Z,6.36
2023-11-30T19:19:44.894Z,6.63
2023-11-30T19:22:18.322Z,6.77
2023-11-30T19:24:50.191Z,6.85
2023-11-30T19:27:21.853Z,6.58
2023-11-30T19:29:53.479Z,6.65
2023-11-30T19:32:25.120Z,6.35
2023-11-30T19:34:56.723Z,6.29
2023-11-30T19:37:28.423Z,6.45
2023-11-30T19:40:02.074Z,6.68
2023-11-30T19:42:34.018Z,6.51
2023-11-30T19:45:06.409Z,6.70
2023-11-30T19:47:38.137Z,6.81
2023-11-30T19:50:10.930Z,6.76
2023-11-30T19:52:42.723Z,6.63
2023-11-30T19:55:14.492Z,6.76
2023-11-30T19:57:46.854Z,6.79
2023-11-30T20:00:18.920Z,6.65
2023-11-30T20:02:50.543Z,6.49
2023-11-30T20:05:23.414Z,6.68
2023-11-30T20:07:55.026Z,6.78
2023-11-30T20:10:27.049Z,6.81
2023-11-30T20:12:58.790Z,6.78
2023-11-30T20:15:31.576Z,6.82
2023-11-30T20:18:05.127Z,6.65
2023-11-30T20:20:36.828Z,6.71
2023-11-30T20:23:08.485Z,6.80
2023-11-30T20:25:40.083Z,6.63
2023-11-30T20:28:11.805Z,6.62
2023-11-30T20:30:43.492Z,6.65
2023-11-30T20:33:15.183Z,6.83
2023-11-30T20:35:46.780Z,6.76
2023-11-30T20:38:18.421Z,6.84
2023-11-30T20:40:51.518Z,6.86
2023-11-30T20:43:23.111Z,6.93
2023-11-30T20:45:54.797Z,7.00
2023-11-30T20:48:26.581Z,6.76
2023-11-30T20:50:58.130Z,6.66
2023-11-30T20:53:29.748Z,6.23
2023-11-30T20:56:01.496Z,6.77
2023-11-30T20:58:33.201Z,6.70
2023-11-30T21:01:05.494Z,6.76
2023-11-30T21:03:37.365Z,6.66
2023-11-30T21:06:09.862Z,6.48
2023-11-30T21:08:41.530Z,6.66
2023-11-30T21:11:14.793Z,6.67
2023-11-30T21:13:46.440Z,6.77
2023-11-30T21:16:19.561Z,6.69
2023-11-30T21:18:51.597Z,6.67
2023-11-30T21:21:23.363Z,6.68
2023-11-30T21:23:55.146Z,6.51
2023-11-30T21:26:26.832Z,6.55
2023-11-30T21:28:58.496Z,6.39
2023-11-30T21:31:30.583Z,6.66
2023-11-30T21:34:02.383Z,6.65
2023-11-30T21:36:34.114Z,6.33
2023-11-30T21:39:05.777Z,6.13
2023-11-30T21:41:37.434Z,5.96
2023-11-30T21:44:09.122Z,6.33
2023-11-30T21:46:40.779Z,6.37
2023-11-30T21:49:14.344Z,6.65
2023-11-30T21:51:45.967Z,6.93
2023-11-30T21:54:17.588Z,7.04
2023-11-30T21:56:49.239Z,6.90
2023-11-30T21:59:20.919Z,6.96
2023-11-30T22:01:52.782Z,6.68
2023-11-30T22:04:24.591Z,6.52
2023-11-30T22:06:56.768Z,6.65
2023-11-30T22:09:29.115Z,6.12
2023-11-30T22:12:04.324Z,6.43
2023-11-30T22:14:36.190Z,6.71
2023-11-30T22:17:07.888Z,6.84
2023-11-30T22:19:39.659Z,6.46
2023-11-30T22:22:11.405Z,6.70
2023-11-30T22:24:43.076Z,6.94
2023-11-30T22:27:14.740Z,6.90
2023-11-30T22:29:46.460Z,6.85
2023-11-30T22:32:18.136Z,6.86
2023-11-30T22:34:49.816Z,6.61
2023-11-30T22:37:21.609Z,6.47
2023-11-30T22:39:53.393Z,6.58
2023-11-30T22:42:27.039Z,6.83
2023-11-30T22:44:59.569Z,6.63
2023-11-30T22:47:31.301Z,6.88
2023-11-30T22:50:05.073Z,6.63
2023-11-30T22:52:36.894Z,6.35
2023-11-30T22:55:09.662Z,6.82
2023-11-30T22:57:41.420Z,6.69
2023-11-30T23:00:21.136Z,6.63
2023-11-30T23:02:53.677Z,6.50
2023-11-30T23:05:25.549Z,6.42
2023-11-30T23:07:57.537Z,6.76
2023-11-30T23:10:29.137Z,6.83
2023-11-30T23:13:01.246Z,6.77
2023-11-30T23:15:33.088Z,6.70
2023-11-30T23:18:04.892Z,6.49
2023-11-30T23:20:36.588Z,6.42
2023-11-30T23:23:08.227Z,6.56
2023-11-30T23:25:39.858Z,6.52
2023-11-30T23:28:11.614Z,5.82
2023-11-30T23:30:43.529Z,6.10
2023-11-30T23:33:15.355Z,6.41
2023-11-30T23:35:47.255Z,6.54
2023-11-30T23:38:19.048Z,6.68
2023-11-30T23:40:50.738Z,6.82
2023-11-30T23:43:22.409Z,6.24
2023-11-30T23:45:54.035Z,6.59
2023-11-30T23:48:25.795Z,6.83
2023-11-30T23:50:57.413Z,6.66
2023-11-30T23:53:29.221Z,6.76
2023-11-30T23:56:00.842Z,6.86
2023-11-30T23:58:32.525Z,6.83
